Time;durP1;ratioP1;P1;durP2;ratioP2;P2;SDS_P1;SDS_P2;PMS_P1;PMS_P2;Temp;Humidity;BMP_temperature;BMP_pressure;BME280_temperature;BME280_humidity;BME280_pressure;Samples;Min_cycle;Max_cycle;Signal;HPM_P1;HPM_P2
2023/12/04 00:00:51;;;;;;;17.65;12.70;;;;;;;2.51;100.00;101187.09;5253466;28;20032;-77
2023/12/04 00:03:23;;;;;;;17.80;13.32;;;;;;;2.54;100.00;101180.91;5251669;28;20033;-77
2023/12/04 00:05:55;;;;;;;17.35;12.73;;;;;;;2.55;100.00;101182.63;5252063;28;20041;-77
2023/12/04 00:08:27;;;;;;;18.80;12.43;;;;;;;2.54;100.00;101180.91;5247014;28;20043;-77
2023/12/04 00:10:59;;;;;;;16.70;12.68;;;;;;;2.48;100.00;101170.88;5249641;28;20047;-77
2023/12/04 00:13:31;;;;;;;17.10;11.63;;;;;;;2.55;100.00;101175.69;5249548;28;20495;-77
2023/12/04 00:16:03;;;;;;;18.52;12.80;;;;;;;2.57;100.00;101167.84;5250058;28;20037;-77
2023/12/04 00:18:35;;;;;;;17.58;12.50;;;;;;;2.56;100.00;101167.03;5252147;28;20033;-77
2023/12/04 00:21:07;;;;;;;16.77;12.15;;;;;;;2.56;100.00;101163.59;5249735;28;20395;-77
2023/12/04 00:23:39;;;;;;;17.60;12.68;;;;;;;2.57;100.00;101160.09;5251998;28;20040;-77
2023/12/04 00:26:12;;;;;;;18.13;12.57;;;;;;;2.48;100.00;101152.78;5248428;28;20032;-77
2023/12/04 00:28:44;;;;;;;18.35;11.73;;;;;;;2.51;100.00;101156.06;5251101;28;20051;-77
2023/12/04 00:31:16;;;;;;;17.45;11.88;;;;;;;2.53;100.00;101158.56;5244975;28;20041;-77
2023/12/04 00:33:48;;;;;;;16.30;12.00;;;;;;;2.52;100.00;101151.72;5240712;28;20037;-77
2023/12/04 00:36:20;;;;;;;17.40;12.07;;;;;;;2.53;100.00;101155.97;5237132;28;20048;-77
2023/12/04 00:38:52;;;;;;;18.20;12.65;;;;;;;2.56;100.00;101150.66;5240463;28;20036;-77
2023/12/04 00:41:24;;;;;;;18.23;12.32;;;;;;;2.56;100.00;101150.66;5239469;28;20491;-77
2023/12/04 00:43:56;;;;;;;15.80;11.07;;;;;;;2.54;100.00;101145.59;5239841;28;20044;-77
2023/12/04 00:46:27;;;;;;;17.92;11.93;;;;;;;2.54;100.00;101145.59;5237814;28;20033;-77
2023/12/04 00:48:59;;;;;;;18.05;11.10;;;;;;;2.56;100.00;101135.16;5238480;28;20037;-77
2023/12/04 00:51:38;;;;;;;15.43;11.50;;;;;;;2.65;100.00;101134.72;5243134;28;20468;-77
2023/12/04 00:54:11;;;;;;;16.02;11.95;;;;;;;2.54;100.00;101132.66;5241545;28;20063;-77
2023/12/04 00:56:43;;;;;;;17.30;12.55;;;;;;;2.55;100.00;101129.16;5238736;28;20032;-77
2023/12/04 00:59:15;;;;;;;16.58;11.40;;;;;;;2.56;100.00;101129.97;5237577;28;20041;-77
2023/12/04 01:01:46;;;;;;;18.23;12.32;;;;;;;2.50;100.00;101117.31;5239181;28;20037;-77
2023/12/04 01:04:18;;;;;;;20.67;12.02;;;;;;;2.54;100.00;101119.72;5243724;28;20504;-77
2023/12/04 01:06:52;;;;;;;17.15;11.90;;;;;;;2.58;100.00;101113.50;5239155;28;21045;-77
2023/12/04 01:09:24;;;;;;;16.33;10.77;;;;;;;2.58;100.00;101110.06;5244152;28;20024;-77
2023/12/04 01:11:56;;;;;;;16.73;11.60;;;;;;;2.54;100.00;101105.91;5239275;28;20025;-77
2023/12/04 01:14:28;;;;;;;15.23;10.73;;;;;;;2.58;100.00;101110.91;5239887;28;20029;-77
2023/12/04 01:16:59;;;;;;;17.40;11.45;;;;;;;2.55;100.00;101102.44;5242113;28;20031;-77
2023/12/04 01:19:32;;;;;;;15.43;11.27;;;;;;;2.56;100.00;101109.28;5240336;28;20374;-77
2023/12/04 01:22:05;;;;;;;15.45;11.45;;;;;;;2.61;100.00;101108.19;5240588;28;20033;-77
2023/12/04 01:24:37;;;;;;;15.90;11.20;;;;;;;2.62;100.00;101099.50;5241676;28;20045;-77
2023/12/04 01:27:09;;;;;;;15.65;10.93;;;;;;;2.58;100.00;101092.78;5236506;28;20034;-77
2023/12/04 01:29:41;;;;;;;14.75;10.65;;;;;;;2.57;100.00;101096.28;5235390;28;20032;-77
2023/12/04 01:32:12;;;;;;;15.73;11.25;;;;;;;2.60;100.00;101090.97;5238800;28;20059;-77
2023/12/04 01:34:45;;;;;;;14.93;10.95;;;;;;;2.57;100.00;101088.50;5238138;28;20032;-77
2023/12/04 01:37:16;;;;;;;14.68;10.40;;;;;;;2.60;100.00;101090.13;5237628;28;20269;-77
2023/12/04 01:39:48;;;;;;;17.00;11.00;;;;;;;2.59;100.00;101081.53;5237573;28;20029;-77
2023/12/04 01:42:20;;;;;;;13.10;10.23;;;;;;;2.60;100.00;101082.38;5240026;28;20615;-77
2023/12/04 01:44:52;;;;;;;14.90;10.43;;;;;;;2.64;100.00;101086.47;5240350;28;20502;-77
2023/12/04 01:47:25;;;;;;;17.35;11.25;;;;;;;2.66;100.00;101085.50;5239539;28;20039;-77
2023/12/04 01:49:57;;;;;;;14.10;10.35;;;;;;;2.67;100.00;101076.81;5243684;28;20025;-77
2023/12/04 01:52:29;;;;;;;15.70;10.57;;;;;;;2.68;100.00;101077.66;5239564;28;20523;-77
2023/12/04 01:55:02;;;;;;;13.93;9.95;;;;;;;2.71;100.00;101076.69;5220230;28;20041;-77
2023/12/04 01:57:34;;;;;;;14.80;10.18;;;;;;;2.70;100.00;101068.09;5241863;28;20494;-77
2023/12/04 02:00:11;;;;;;;13.07;9.40;;;;;;;2.69;100.00;101063.84;5240727;28;20040;-77
2023/12/04 02:02:43;;;;;;;14.07;10.60;;;;;;;2.75;100.00;101058.34;5232247;28;20067;-77
2023/12/04 02:05:16;;;;;;;13.25;9.40;;;;;;;2.68;100.00;101056.97;5236149;28;20044;-77
2023/12/04 02:07:48;;;;;;;15.95;10.40;;;;;;;2.62;100.00;101040.00;5238382;28;20044;-77
2023/12/04 02:10:20;;;;;;;12.60;9.02;;;;;;;2.70;100.00;101047.41;5237725;28;20501;-77
2023/12/04 02:12:52;;;;;;;15.32;10.20;;;;;;;2.68;100.00;101051.78;5238622;28;20080;-77
2023/12/04 02:15:24;;;;;;;13.55;9.32;;;;;;;2.69;100.00;101043.13;5240644;28;20029;-77
2023/12/04 02:17:56;;;;;;;14.13;10.00;;;;;;;2.67;100.00;101038.03;5239095;28;20050;-77
2023/12/04 02:20:35;;;;;;;14.52;9.18;;;;;;;2.84;100.00;101041.53;5240727;28;20481;-77
2023/12/04 02:23:07;;;;;;;14.63;10.05;;;;;;;2.67;100.00;101035.44;5236130;28;20029;-77
2023/12/04 02:25:39;;;;;;;14.32;9.95;;;;;;;2.70;100.00;101028.44;5241291;28;21484;-77
2023/12/04 02:28:15;;;;;;;11.60;8.85;;;;;;;2.79;100.00;101031.41;5240443;28;20512;-77
2023/12/04 02:30:49;;;;;;;12.65;8.85;;;;;;;2.75;100.00;101031.63;5238300;28;20036;-77
2023/12/04 02:33:23;;;;;;;12.70;9.60;;;;;;;2.82;100.00;101033.00;5241135;28;20029;-77
2023/12/04 02:35:58;;;;;;;13.77;8.80;;;;;;;2.76;100.00;101017.78;5244565;28;20036;-77
2023/12/04 02:38:30;;;;;;;12.45;9.30;;;;;;;2.77;100.00;101032.41;5244228;28;20033;-77
2023/12/04 02:41:03;;;;;;;13.82;9.38;;;;;;;2.78;100.00;101021.16;5242539;28;20040;-77
2023/12/04 02:43:34;;;;;;;14.48;9.93;;;;;;;2.79;100.00;101010.72;5242530;28;20044;-77
2023/12/04 02:46:06;;;;;;;20.42;8.73;;;;;;;2.77;100.00;101014.31;5244327;28;20490;-77
2023/12/04 02:48:38;;;;;;;13.07;9.40;;;;;;;2.75;100.00;101008.34;5245043;28;20739;-77
2023/12/04 02:51:11;;;;;;;13.65;9.13;;;;;;;2.73;100.00;100999.81;5240921;28;20501;-77
2023/12/04 02:53:42;;;;;;;12.80;8.73;;;;;;;2.74;100.00;100999.75;5241762;28;20033;-77
2023/12/04 02:56:14;;;;;;;13.65;9.13;;;;;;;2.75;100.00;101001.44;5243812;28;20091;-77
2023/12/04 02:58:46;;;;;;;12.60;9.05;;;;;;;2.71;100.00;100989.56;5239254;28;20021;-77
2023/12/04 03:01:18;;;;;;;12.02;8.70;;;;;;;2.72;100.00;100991.22;5242997;28;20029;-77
2023/12/04 03:03:50;;;;;;;12.50;8.70;;;;;;;2.74;100.00;100986.81;5244569;28;20033;-77
2023/12/04 03:06:22;;;;;;;12.10;9.02;;;;;;;2.64;100.00;100970.91;5243952;28;20048;-77
2023/12/04 03:08:54;;;;;;;11.90;9.00;;;;;;;2.71;100.00;100984.38;5242321;28;20025;-77
2023/12/04 03:11:26;;;;;;;13.60;8.48;;;;;;;2.72;100.00;100985.22;5241978;28;20037;-77
2023/12/04 03:14:00;;;;;;;11.95;9.10;;;;;;;2.72;100.00;100977.47;5243005;28;20044;-77
2023/12/04 03:16:32;;;;;;;13.77;9.73;;;;;;;2.67;100.00;100973.34;5241523;28;20040;-77
2023/12/04 03:19:04;;;;;;;11.30;8.43;;;;;;;2.67;100.00;100962.19;5241633;28;20036;-77
2023/12/04 03:21:35;;;;;;;11.80;8.55;;;;;;;2.71;100.00;100957.69;5242066;28;20036;-77
2023/12/04 03:24:07;;;;;;;13.38;9.05;;;;;;;2.72;100.00;100959.34;5240067;28;20040;-77
2023/12/04 03:26:40;;;;;;;12.80;9.00;;;;;;;2.67;100.00;100947.50;5241227;28;20029;-77
2023/12/04 03:29:12;;;;;;;12.40;8.88;;;;;;;2.71;100.00;100947.34;5235163;28;20453;-77
2023/12/04 03:31:44;;;;;;;12.35;8.77;;;;;;;2.67;100.00;100937.13;5245622;28;20425;-77
2023/12/04 03:34:15;;;;;;;11.52;8.02;;;;;;;2.68;100.00;100938.81;5247309;28;20029;-77
2023/12/04 03:36:47;;;;;;;11.48;7.85;;;;;;;2.70;100.00;100932.75;5248239;28;20028;-77
2023/12/04 03:39:19;;;;;;;11.75;8.07;;;;;;;2.74;100.00;100921.31;5249344;28;20029;-77
2023/12/04 03:41:51;;;;;;;12.45;8.98;;;;;;;2.72;100.00;100918.78;5247951;28;20040;-77
2023/12/04 03:44:23;;;;;;;11.15;7.80;;;;;;;2.73;100.00;100909.28;5250913;28;20033;-77
2023/12/04 03:46:55;;;;;;;12.95;8.57;;;;;;;2.78;100.00;100909.91;5249257;28;20033;-77
2023/12/04 03:49:27;;;;;;;11.15;7.85;;;;;;;2.76;100.00;100912.53;5253101;28;20025;-77
2023/12/04 03:51:58;;;;;;;10.45;7.60;;;;;;;2.77;100.00;100906.47;5252652;28;20481;-75
2023/12/04 03:54:30;;;;;;;11.90;7.93;;;;;;;2.76;100.00;100894.44;5250077;28;20425;-76
2023/12/04 03:57:02;;;;;;;13.18;9.10;;;;;;;2.80;100.00;100902.88;5250715;28;20055;-76
2023/12/04 03:59:34;;;;;;;13.45;9.15;;;;;;;2.81;100.00;100908.00;5250572;28;20036;-76
2023/12/04 04:02:06;;;;;;;12.10;8.30;;;;;;;2.83;100.00;100894.97;5249101;28;20037;-75
2023/12/04 04:04:38;;;;;;;14.15;8.48;;;;;;;2.84;100.00;100900.06;5247894;28;20535;-76
2023/12/04 04:07:10;;;;;;;12.02;8.65;;;;;;;2.82;100.00;100893.31;5252275;28;20402;-75
2023/12/04 04:09:42;;;;;;;11.18;7.88;;;;;;;2.79;100.00;100888.28;5247753;28;20021;-76
2023/12/04 04:12:14;;;;;;;11.95;8.52;;;;;;;2.81;100.00;100889.88;5250680;28;20037;-76
2023/12/04 04:14:45;;;;;;;11.77;8.57;;;;;;;2.80;100.00;100880.41;5246216;28;20037;-75
2023/12/04 04:17:17;;;;;;;11.25;8.32;;;;;;;2.83;100.00;100879.44;5249062;28;20047;-76
2023/12/04 04:19:49;;;;;;;12.52;8.43;;;;;;;2.81;100.00;100882.13;5249977;28;20029;-76
2023/12/04 04:22:21;;;;;;;11.90;8.57;;;;;;;2.83;100.00;100876.84;5251394;28;20041;-75
2023/12/04 04:24:53;;;;;;;14.13;8.48;;;;;;;2.83;100.00;100874.25;5251403;28;20055;-75
2023/12/04 04:27:25;;;;;;;11.80;8.52;;;;;;;2.76;100.00;100863.38;5248209;28;20124;-76
2023/12/04 04:29:57;;;;;;;11.32;8.05;;;;;;;2.73;100.00;100868.75;5250695;28;20492;-75
2023/12/04 04:32:29;;;;;;;12.95;8.57;;;;;;;2.81;100.00;100858.00;5243475;28;20410;-76
2023/12/04 04:35:01;;;;;;;10.55;7.43;;;;;;;2.85;100.00;100851.75;5241621;28;20025;-76
2023/12/04 04:37:33;;;;;;;12.25;8.57;;;;;;;2.86;100.00;100851.66;5242072;28;20863;-75
2023/12/04 04:40:06;;;;;;;10.68;7.82;;;;;;;2.85;100.00;100851.75;5244287;28;20479;-75
2023/12/04 04:42:38;;;;;;;10.40;7.73;;;;;;;2.86;100.00;100850.81;5241430;28;20039;-75
2023/12/04 04:45:10;;;;;;;10.27;7.53;;;;;;;2.84;100.00;100850.06;5237302;28;21147;-75
2023/12/04 04:47:41;;;;;;;11.50;8.00;;;;;;;2.88;100.00;100846.41;5244273;28;20037;-75
2023/12/04 04:50:14;;;;;;;11.20;7.55;;;;;;;2.91;100.00;100851.41;5244992;28;20383;-75
2023/12/04 04:52:45;;;;;;;12.25;8.63;;;;;;;2.86;100.00;100851.66;5235041;28;20387;-75
2023/12/04 04:55:17;;;;;;;11.38;8.10;;;;;;;2.85;100.00;100849.16;5239359;28;20045;-75
2023/12/04 04:57:49;;;;;;;9.93;7.47;;;;;;;2.83;100.00;100849.22;5241408;28;20029;-75
2023/12/04 05:00:21;;;;;;;11.20;8.07;;;;;;;2.81;100.00;100848.47;5242713;28;20043;-75
2023/12/04 05:02:53;;;;;;;14.32;8.77;;;;;;;2.84;100.00;100850.91;5242549;28;20706;-75
2023/12/04 05:05:25;;;;;;;11.93;8.43;;;;;;;2.85;100.00;100844.00;5240905;28;20516;-75
2023/12/04 05:07:57;;;;;;;9.50;7.07;;;;;;;2.85;100.00;100847.41;5239844;28;20036;-75
2023/12/04 05:10:29;;;;;;;11.13;8.02;;;;;;;2.85;100.00;100838.81;5237562;28;20044;-75
2023/12/04 05:13:01;;;;;;;11.13;7.70;;;;;;;2.87;100.00;100842.97;5238310;28;20028;-75
2023/12/04 05:15:33;;;;;;;11.45;7.13;;;;;;;2.88;100.00;100847.25;5237863;28;20482;-76
2023/12/04 05:18:04;;;;;;;10.50;7.53;;;;;;;2.89;100.00;100840.31;5241501;28;20025;-75
2023/12/04 05:20:36;;;;;;;10.63;7.55;;;;;;;2.87;100.00;100830.03;5239021;28;20480;-76
2023/12/04 05:23:08;;;;;;;12.18;8.77;;;;;;;2.83;100.00;100825.09;5239180;28;20292;-76
2023/12/04 05:25:40;;;;;;;10.60;7.80;;;;;;;2.86;100.00;100822.38;5231221;28;20038;-76
2023/12/04 05:28:12;;;;;;;11.05;8.25;;;;;;;2.81;100.00;100816.59;5235337;28;20034;-76
2023/12/04 05:30:44;;;;;;;11.00;8.10;;;;;;;2.67;100.00;100791.47;5235999;28;20036;-76
2023/12/04 05:33:16;;;;;;;12.50;8.35;;;;;;;2.79;100.00;100795.97;5239584;28;20116;-76
2023/12/04 05:35:48;;;;;;;10.30;7.68;;;;;;;2.77;100.00;100787.47;5237406;28;20417;-76
2023/12/04 05:38:20;;;;;;;11.55;8.55;;;;;;;2.83;100.00;100788.88;5236749;28;20034;-76
2023/12/04 05:40:52;;;;;;;10.10;7.85;;;;;;;2.84;100.00;100798.31;5241964;28;20037;-76
2023/12/04 05:43:23;;;;;;;11.70;7.85;;;;;;;2.85;100.00;100800.00;5234515;28;20025;-76
2023/12/04 05:45:55;;;;;;;10.32;7.93;;;;;;;2.85;100.00;100807.75;5241419;28;20043;-76
2023/12/04 05:48:27;;;;;;;11.15;7.82;;;;;;;2.75;100.00;100803.97;5236309;28;20051;-76
2023/12/04 05:50:59;;;;;;;10.95;8.27;;;;;;;2.80;100.00;100805.41;5237505;28;20850;-76
2023/12/04 05:53:31;;;;;;;11.48;8.52;;;;;;;2.79;100.00;100801.16;5237440;28;20037;-76
2023/12/04 05:56:05;;;;;;;11.98;8.05;;;;;;;2.81;100.00;100790.75;5236934;28;20033;-76
2023/12/04 05:58:37;;;;;;;10.63;8.07;;;;;;;2.81;100.00;100788.16;5241675;28;20390;-76
2023/12/04 06:01:08;;;;;;;10.13;7.85;;;;;;;2.84;100.00;100783.66;5235926;28;20033;-76
2023/12/04 06:03:40;;;;;;;12.88;8.73;;;;;;;2.84;100.00;100780.19;5235862;28;20036;-76
2023/12/04 06:06:12;;;;;;;9.80;7.70;;;;;;;2.83;100.00;100788.88;5238899;28;20514;-76
2023/12/04 06:08:44;;;;;;;10.23;7.65;;;;;;;2.90;100.00;100780.72;5241870;28;20036;-76
2023/12/04 06:11:16;;;;;;;11.23;8.05;;;;;;;2.92;100.00;100783.22;5243875;28;20505;-76
2023/12/04 06:13:48;;;;;;;11.35;8.75;;;;;;;2.91;100.00;100778.94;5247366;28;20417;-76
2023/12/04 06:16:20;;;;;;;11.70;7.97;;;;;;;2.90;100.00;100762.59;5247422;28;20044;-76
2023/12/04 06:18:52;;;;;;;10.00;7.80;;;;;;;2.90;100.00;100752.25;5222138;28;20051;-76
2023/12/04 06:21:24;;;;;;;9.77;7.78;;;;;;;2.83;100.00;100752.66;5244218;28;20041;-76
2023/12/04 06:23:57;;;;;;;10.70;7.93;;;;;;;2.83;100.00;100745.72;5247374;28;20025;-76
2023/12/04 06:26:31;;;;;;;10.05;7.40;;;;;;;2.89;100.00;100744.59;5244054;28;20041;-76
2023/12/04 06:29:03;;;;;;;9.63;7.55;;;;;;;2.84;100.00;100741.38;5245779;28;20055;-76
2023/12/04 06:31:35;;;;;;;10.07;7.13;;;;;;;2.79;100.00;100720.13;5239701;28;20052;-76
2023/12/04 06:34:07;;;;;;;8.90;7.30;;;;;;;2.85;100.00;100730.97;5245973;28;20044;-76
2023/12/04 06:36:40;;;;;;;8.10;7.00;;;;;;;2.75;100.00;100708.28;5250074;28;20256;-76
2023/12/04 06:39:13;;;;;;;7.97;6.63;;;;;;;2.78;100.00;100718.47;5246087;28;20025;-76
2023/12/04 06:41:46;;;;;;;8.37;7.17;;;;;;;2.81;100.00;100713.94;5244835;28;20092;-76
2023/12/04 06:44:18;;;;;;;9.55;7.38;;;;;;;2.80;100.00;100712.25;5247653;28;20331;-76
2023/12/04 06:46:51;;;;;;;9.10;6.40;;;;;;;2.79;100.00;100712.34;5246770;28;20402;-76
2023/12/04 06:49:24;;;;;;;7.85;6.32;;;;;;;2.79;100.00;100707.19;5247432;28;20041;-76
2023/12/04 06:51:56;;;;;;;8.55;6.38;;;;;;;2.80;100.00;100719.19;5244492;28;20413;-76
2023/12/04 06:54:28;;;;;;;9.10;6.80;;;;;;;2.79;100.00;100733.06;5249703;28;20049;-76
2023/12/04 06:57:01;;;;;;;8.45;6.43;;;;;;;2.77;100.00;100725.38;5245574;28;20048;-76
2023/12/04 06:59:33;;;;;;;8.80;6.67;;;;;;;2.79;100.00;100733.06;5247749;28;20032;-76
2023/12/04 07:02:05;;;;;;;7.90;6.40;;;;;;;2.78;100.00;100721.88;5248029;28;20295;-76
2023/12/04 07:04:37;;;;;;;8.82;6.50;;;;;;;2.81;100.00;100713.94;5247169;28;20405;-76
2023/12/04 07:07:09;;;;;;;9.43;6.82;;;;;;;2.71;100.00;100709.34;5246450;28;20037;-76
2023/12/04 07:09:41;;;;;;;9.10;6.68;;;;;;;2.78;100.00;100708.09;5242889;28;20028;-76
2023/12/04 07:12:13;;;;;;;7.97;6.45;;;;;;;2.76;100.00;100697.00;5247642;28;20043;-76
2023/12/04 07:14:45;;;;;;;8.77;6.43;;;;;;;2.83;100.00;100706.09;5243176;28;20034;-76
2023/12/04 07:17:17;;;;;;;9.32;7.18;;;;;;;2.74;100.00;100694.50;5243539;28;20470;-76
2023/12/04 07:19:49;;;;;;;8.80;6.07;;;;;;;2.84;100.00;100711.19;5243102;28;20375;-76
2023/12/04 07:22:20;;;;;;;7.65;6.28;;;;;;;2.83;100.00;100713.84;5231813;28;20049;-76
2023/12/04 07:24:52;;;;;;;7.75;6.05;;;;;;;2.75;100.00;100713.44;5235459;28;20033;-76
2023/12/04 07:27:25;;;;;;;6.93;5.65;;;;;;;2.75;100.00;100708.28;5220089;28;20430;-76
2023/12/04 07:29:57;;;;;;;7.65;6.28;;;;;;;2.78;100.00;100708.94;5240600;28;20029;-76
2023/12/04 07:32:28;;;;;;;7.35;5.85;;;;;;;2.81;100.00;100705.38;5244771;28;20055;-76
2023/12/04 07:35:00;;;;;;;7.70;5.72;;;;;;;2.83;100.00;100703.50;5246382;28;20040;-76
2023/12/04 07:37:32;;;;;;;7.72;6.10;;;;;;;2.79;100.00;100710.59;5249310;28;20474;-76
2023/12/04 07:40:07;;;;;;;6.93;5.60;;;;;;;2.83;100.00;100713.84;5248733;28;20025;-76
2023/12/04 07:42:39;;;;;;;7.65;5.70;;;;;;;2.79;100.00;100712.34;5248712;28;20040;-76
2023/12/04 07:45:11;;;;;;;8.15;4.93;;;;;;;2.79;100.00;100708.00;5251385;28;20034;-76
2023/12/04 07:47:43;;;;;;;6.65;5.03;;;;;;;2.85;100.00;100704.28;5248256;28;20379;-76
2023/12/04 07:50:15;;;;;;;5.97;5.03;;;;;;;2.80;100.00;100703.66;5248749;28;20378;-76
2023/12/04 07:52:46;;;;;;;9.60;6.05;;;;;;;2.83;100.00;100698.34;5247671;28;20039;-76
2023/12/04 07:55:18;;;;;;;6.43;4.68;;;;;;;2.87;100.00;100697.25;5247386;28;20083;-76
2023/12/04 07:57:50;;;;;;;7.50;5.68;;;;;;;2.81;100.00;100689.84;5248766;28;20043;-76
2023/12/04 08:00:22;;;;;;;7.28;5.65;;;;;;;2.82;100.00;100691.50;5244265;28;20517;-76
2023/12/04 08:02:54;;;;;;;8.00;6.07;;;;;;;2.79;100.00;100676.13;5244582;28;20029;-75
2023/12/04 08:05:27;;;;;;;6.80;4.90;;;;;;;2.80;100.00;100667.44;5249050;28;20028;-76
2023/12/04 08:07:59;;;;;;;6.97;5.07;;;;;;;2.92;100.00;100683.16;5250921;28;20032;-75
2023/12/04 08:10:31;;;;;;;6.70;5.03;;;;;;;2.90;100.00;100681.56;5249031;28;20043;-75
2023/12/04 08:13:03;;;;;;;8.07;5.57;;;;;;;2.96;100.00;100677.81;5245406;28;20029;-75
2023/12/04 08:15:35;;;;;;;6.75;5.10;;;;;;;2.90;100.00;100663.44;5244334;28;20268;-75
2023/12/04 08:18:07;;;;;;;8.93;5.65;;;;;;;2.93;100.00;100673.63;5248933;28;20044;-75
2023/12/04 08:20:38;;;;;;;6.85;5.47;;;;;;;2.93;100.00;100674.47;5252460;28;20050;-75
2023/12/04 08:23:10;;;;;;;7.50;4.88;;;;;;;2.89;100.00;100666.97;5249659;28;20029;-75
2023/12/04 08:25:42;;;;;;;8.77;5.97;;;;;;;2.93;100.00;100668.44;5251012;28;20384;-75
2023/12/04 08:28:14;;;;;;;7.47;5.35;;;;;;;2.96;100.00;100670.03;5243469;28;20031;-75
2023/12/04 08:30:47;;;;;;;8.88;5.55;;;;;;;2.93;100.00;100663.28;5248198;28;20070;-75
2023/12/04 08:33:20;;;;;;;7.63;5.28;;;;;;;2.93;100.00;100658.94;5253322;28;20032;-75
2023/12/04 08:35:52;;;;;;;7.32;5.28;;;;;;;2.92;100.00;100651.28;5250680;28;20044;-75
2023/12/04 08:38:23;;;;;;;7.20;5.10;;;;;;;2.95;100.00;100650.25;5247234;28;20029;-75
2023/12/04 08:40:55;;;;;;;7.78;5.53;;;;;;;2.96;100.00;100646.75;5247726;28;20033;-75
2023/12/04 08:43:28;;;;;;;6.15;4.95;;;;;;;2.84;100.00;100631.00;5249406;28;20494;-75
2023/12/04 08:46:00;;;;;;;7.38;5.53;;;;;;;2.98;100.00;100629.38;5244885;28;20032;-75
2023/12/04 08:48:32;;;;;;;7.38;5.45;;;;;;;3.00;100.00;100625.78;5247358;28;20332;-74
2023/12/04 08:51:04;;;;;;;8.48;5.63;;;;;;;2.99;100.00;100626.69;5244613;28;20029;-74
2023/12/04 08:53:36;;;;;;;6.15;4.95;;;;;;;2.98;100.00;100619.03;5243463;28;20040;-74
2023/12/04 08:56:09;;;;;;;5.97;4.90;;;;;;;2.99;100.00;100616.34;5245032;28;20509;-75
2023/12/04 08:58:41;;;;;;;7.47;4.70;;;;;;;3.05;100.00;100616.00;5242103;28;20041;-75
2023/12/04 09:01:13;;;;;;;7.95;5.40;;;;;;;3.05;100.00;100610.81;5246542;28;20029;-75
2023/12/04 09:03:45;;;;;;;7.63;4.85;;;;;;;3.06;100.00;100614.25;5245872;28;20036;-75
2023/12/04 09:06:18;;;;;;;6.68;4.88;;;;;;;3.05;100.00;100612.59;5247628;28;20708;-75
2023/12/04 09:08:50;;;;;;;6.05;4.65;;;;;;;3.06;100.00;100617.66;5245075;28;20032;-75
2023/12/04 09:11:22;;;;;;;6.80;5.13;;;;;;;3.08;100.00;100617.59;5248372;28;20040;-75
2023/12/04 09:13:54;;;;;;;6.95;5.22;;;;;;;3.13;100.00;100613.78;5247079;28;20040;-75
2023/12/04 09:16:26;;;;;;;7.45;4.88;;;;;;;3.14;100.00;100610.31;5247279;28;20052;-75
2023/12/04 09:18:58;;;;;;;7.55;4.88;;;;;;;3.19;100.00;100610.03;5247221;28;20389;-75
2023/12/04 09:21:30;;;;;;;7.25;4.93;;;;;;;3.15;100.00;100605.97;5243801;28;20490;-75
2023/12/04 09:24:01;;;;;;;7.78;4.97;;;;;;;3.11;100.00;100607.06;5247483;28;20048;-75
2023/12/04 09:26:33;;;;;;;5.35;4.20;;;;;;;3.15;100.00;100606.78;5246509;28;20390;-75
2023/12/04 09:29:05;;;;;;;7.03;4.70;;;;;;;3.18;100.00;100600.59;5244156;28;20041;-75
2023/12/04 09:31:37;;;;;;;7.82;5.15;;;;;;;3.23;100.00;100593.41;5244610;28;20049;-75
2023/12/04 09:34:09;;;;;;;10.02;5.05;;;;;;;3.25;100.00;100606.25;5246565;28;20049;-75
2023/12/04 09:36:41;;;;;;;8.18;4.82;;;;;;;3.23;100.00;100600.34;5246684;28;20413;-75
2023/12/04 09:39:13;;;;;;;6.88;4.55;;;;;;;3.28;100.00;100611.25;5244290;28;20025;-75
2023/12/04 09:41:46;;;;;;;8.57;4.88;;;;;;;3.30;100.00;100604.25;5246904;28;20029;-75
2023/12/04 09:44:19;;;;;;;5.97;4.57;;;;;;;3.28;100.00;100593.97;5243766;28;20029;-75
2023/12/04 09:46:51;;;;;;;6.15;4.82;;;;;;;3.36;100.00;100609.03;5245936;28;20035;-75
2023/12/04 09:49:26;;;;;;;6.63;4.88;;;;;;;3.38;100.00;100599.44;5249297;28;20044;-75
2023/12/04 09:51:58;;;;;;;7.07;4.78;;;;;;;3.41;100.00;100600.09;5247157;28;20411;-75
2023/12/04 09:54:30;;;;;;;6.15;5.25;;;;;;;3.38;100.00;100604.63;5248651;28;20036;-75
2023/12/04 09:57:03;;;;;;;5.95;4.50;;;;;;;3.41;100.00;100597.50;5247190;28;20398;-75
2023/12/04 09:59:36;;;;;;;7.55;5.28;;;;;;;3.34;100.00;100587.59;5247827;28;20033;-75
2023/12/04 10:02:07;;;;;;;8.23;5.13;;;;;;;3.45;100.00;100586.94;5247359;28;20052;-75
2023/12/04 10:04:41;;;;;;;5.72;4.28;;;;;;;3.41;100.00;100583.72;5246198;28;20028;-75
2023/12/04 10:07:13;;;;;;;6.95;4.95;;;;;;;3.44;100.00;100587.88;5250069;28;20033;-75
2023/12/04 10:09:45;;;;;;;6.68;5.18;;;;;;;3.43;100.00;100581.88;5249624;28;20036;-75
2023/12/04 10:12:21;;;;;;;7.53;5.15;;;;;;;3.41;100.00;100568.19;5245378;28;20044;-75
2023/12/04 10:15:07;;;;;;;7.00;5.30;;;;;;;3.65;100.00;100579.66;5244241;28;20037;-75
2023/12/04 10:17:41;;;;;;;7.75;5.18;;;;;;;3.52;100.00;100576.13;5249189;28;20032;-75
2023/12/04 10:20:18;;;;;;;6.82;5.00;;;;;;;3.54;100.00;100569.13;5244315;28;20032;-75
2023/12/04 10:22:59;;;;;;;6.95;5.50;;;;;;;3.59;100.00;100563.66;5240695;28;20048;-75
2023/12/04 10:25:32;;;;;;;6.70;5.57;;;;;;;3.56;100.00;100554.31;5244794;28;20036;-75
2023/12/04 10:28:09;;;;;;;8.32;5.60;;;;;;;3.68;100.00;100551.94;5245077;28;20047;-75
2023/12/04 10:30:41;;;;;;;7.68;5.70;;;;;;;3.65;100.00;100542.56;5240061;28;20390;-75
2023/12/04 10:33:14;;;;;;;8.25;5.40;;;;;;;3.68;100.00;100541.56;5242069;28;20423;-75
2023/12/04 10:35:46;;;;;;;9.68;6.28;;;;;;;3.72;100.00;100535.25;5243052;28;20498;-75
2023/12/04 10:38:18;;;;;;;7.65;5.70;;;;;;;3.81;100.00;100527.75;5243725;28;20033;-75
2023/12/04 10:40:50;;;;;;;9.85;6.00;;;;;;;3.79;100.00;100531.34;5245145;28;20032;-75
2023/12/04 10:43:23;;;;;;;8.10;6.10;;;;;;;3.78;100.00;100521.91;5244322;28;20032;-75
2023/12/04 10:45:56;;;;;;;9.95;6.30;;;;;;;3.81;100.00;100511.38;5247276;28;20032;-75
2023/12/04 10:48:28;;;;;;;6.97;5.70;;;;;;;3.80;100.00;100510.53;5242997;28;20044;-75
2023/12/04 10:51:00;;;;;;;8.27;6.28;;;;;;;3.83;100.00;100510.34;5240829;28;20686;-75
2023/12/04 10:53:32;;;;;;;8.98;6.93;;;;;;;3.83;100.00;100510.34;5242715;28;20033;-75
2023/12/04 10:56:05;;;;;;;9.65;6.68;;;;;;;3.89;100.00;100502.19;5249935;28;20064;-75
2023/12/04 10:58:40;;;;;;;8.10;6.45;;;;;;;3.98;100.00;100493.03;5250118;28;20036;-75
2023/12/04 11:01:13;;;;;;;9.75;6.60;;;;;;;3.96;100.00;100484.50;5244309;28;20036;-75
2023/12/04 11:03:48;;;;;;;9.23;6.65;;;;;;;4.08;100.00;100483.72;5246487;28;20029;-75
2023/12/04 11:06:23;;;;;;;9.98;7.65;;;;;;;3.95;100.00;100480.25;5244611;28;20051;-75
2023/12/04 11:08:57;;;;;;;9.65;7.05;;;;;;;4.05;100.00;100473.56;5250543;28;20040;-75
2023/12/04 11:11:35;;;;;;;9.45;6.50;;;;;;;4.21;100.00;100477.78;5247671;28;20029;-75
2023/12/04 11:14:10;;;;;;;8.73;6.68;;;;;;;4.13;100.00;100476.50;5242290;28;20501;-75
2023/12/04 11:16:57;;;;;;;8.75;6.97;;;;;;;4.25;100.00;100472.28;5248049;28;20048;-75
2023/12/04 11:19:34;;;;;;;9.85;6.53;;;;;;;4.24;100.00;100467.19;5250907;28;20025;-75
2023/12/04 11:22:08;;;;;;;11.00;6.75;;;;;;;4.11;100.00;100451.59;5250778;28;20514;-75
2023/12/04 11:24:40;;;;;;;8.20;6.95;;;;;;;4.17;100.00;100461.56;5248377;28;20229;-75
2023/12/04 11:27:14;;;;;;;9.10;7.30;;;;;;;4.18;100.00;100462.41;5247493;28;20389;-75
2023/12/04 11:29:47;;;;;;;9.60;6.63;;;;;;;4.11;100.00;100444.63;5251372;28;20035;-75
2023/12/04 11:32:24;;;;;;;8.32;6.50;;;;;;;4.19;100.00;100458.88;5251832;28;20045;-75
2023/12/04 11:34:59;;;;;;;10.10;7.15;;;;;;;4.12;100.00;100443.69;5250345;28;20033;-75
2023/12/04 11:37:30;;;;;;;8.20;6.78;;;;;;;4.17;100.00;100443.44;5250136;28;20033;-74
2023/12/04 11:40:04;;;;;;;9.10;7.22;;;;;;;4.17;100.00;100434.78;5248075;28;20033;-74
2023/12/04 11:42:39;;;;;;;10.13;6.88;;;;;;;4.15;100.00;100434.91;5250931;28;20055;-74